createdAt,value
2018-11-13T00:00:23.986Z,84.03
2018-11-13T00:02:52.329Z,83.90
2018-11-13T00:05:20.341Z,83.71
2018-11-13T00:07:47.781Z,83.94
2018-11-13T00:10:15.488Z,84.21
2018-11-13T00:12:42.935Z,83.98
2018-11-13T00:15:10.882Z,84.04
2018-11-13T00:17:38.784Z,84.09
2018-11-13T00:20:11.819Z,83.83
2018-11-13T00:22:39.494Z,83.72
2018-11-13T00:25:08.648Z,83.86
2018-11-13T00:27:36.291Z,83.85
2018-11-13T00:30:04.658Z,83.67
2018-11-13T00:32:32.206Z,83.56
2018-11-13T00:34:59.712Z,83.79
2018-11-13T00:37:27.451Z,83.69
2018-11-13T00:39:55.343Z,83.56
2018-11-13T00:42:22.867Z,83.73
2018-11-13T00:44:50.585Z,83.79
2018-11-13T00:47:18.252Z,83.77
2018-11-13T00:49:45.722Z,83.82
2018-11-13T00:52:13.268Z,83.84
2018-11-13T00:54:40.924Z,83.83
2018-11-13T00:57:08.391Z,83.70
2018-11-13T00:59:36.292Z,83.80
2018-11-13T01:02:04.441Z,83.69
2018-11-13T01:04:31.844Z,83.81
2018-11-13T01:06:59.549Z,83.65
2018-11-13T01:09:27.310Z,83.53
2018-11-13T01:11:54.877Z,83.50
2018-11-13T01:14:22.341Z,83.34
2018-11-13T01:16:50.055Z,83.81
2018-11-13T01:19:17.588Z,83.62
2018-11-13T01:21:45.139Z,83.68
2018-11-13T01:24:12.863Z,83.79
2018-11-13T01:26:40.338Z,83.81
2018-11-13T01:29:07.798Z,83.55
2018-11-13T01:31:35.447Z,83.50
2018-11-13T01:34:02.881Z,83.60
2018-11-13T01:36:30.387Z,83.21
2018-11-13T01:38:58.070Z,84.02
2018-11-13T01:41:25.555Z,83.40
2018-11-13T01:43:53.427Z,83.40
2018-11-13T01:46:21.134Z,83.56
2018-11-13T01:48:48.579Z,83.28
2018-11-13T01:51:16.334Z,83.41
2018-11-13T01:53:43.991Z,83.58
2018-11-13T01:56:11.498Z,83.18
2018-11-13T01:58:39.129Z,83.10
2018-11-13T02:01:06.899Z,83.41
2018-11-13T02:03:34.400Z,83.56
2018-11-13T02:06:01.921Z,83.05
2018-11-13T02:08:29.493Z,83.33
2018-11-13T02:10:57.026Z,83.02
2018-11-13T02:13:24.641Z,83.08
2018-11-13T02:15:52.300Z,83.28
2018-11-13T02:18:19.792Z,83.09
2018-11-13T02:20:47.390Z,83.15
2018-11-13T02:23:15.073Z,83.32
2018-11-13T02:25:42.561Z,83.45
2018-11-13T02:28:10.152Z,83.49
2018-11-13T02:30:37.745Z,83.41
2018-11-13T02:33:05.615Z,83.17
2018-11-13T02:35:33.374Z,83.21
2018-11-13T02:38:01.021Z,83.00
2018-11-13T02:40:28.529Z,83.42
2018-11-13T02:42:56.268Z,83.26
2018-11-13T02:45:23.970Z,83.38
2018-11-13T02:47:51.382Z,82.84
2018-11-13T02:50:20.117Z,82.99
2018-11-13T02:52:47.794Z,82.90
2018-11-13T02:55:15.344Z,83.12
2018-11-13T02:57:43.404Z,83.15
2018-11-13T03:00:15.525Z,83.21
2018-11-13T03:02:43.027Z,83.00
2018-11-13T03:05:12.619Z,82.81
2018-11-13T03:07:40.559Z,83.23
2018-11-13T03:10:09.545Z,83.16
2018-11-13T03:12:37.182Z,83.06
2018-11-13T03:15:05.677Z,82.90
2018-11-13T03:17:33.160Z,83.13
2018-11-13T03:20:00.943Z,82.89
2018-11-13T03:22:28.888Z,83.00
2018-11-13T03:24:56.382Z,82.68
2018-11-13T03:27:24.100Z,83.28
2018-11-13T03:29:51.851Z,83.01
2018-11-13T03:32:19.327Z,83.16
2018-11-13T03:34:46.921Z,82.72
2018-11-13T03:37:14.611Z,83.23
2018-11-13T03:39:42.090Z,82.84
2018-11-13T03:42:09.793Z,82.70
2018-11-13T03:44:37.416Z,83.00
2018-11-13T03:47:05.276Z,82.76
2018-11-13T03:49:32.922Z,82.55
2018-11-13T03:52:00.661Z,82.83
2018-11-13T03:54:28.149Z,83.02
2018-11-13T03:56:55.706Z,82.78
2018-11-13T03:59:23.426Z,82.79
2018-11-13T04:01:50.911Z,82.90
2018-11-13T04:04:18.383Z,83.03
2018-11-13T04:06:46.016Z,82.86
2018-11-13T04:09:14.495Z,82.97
2018-11-13T04:11:42.252Z,82.86
2018-11-13T04:14:10.449Z,82.93
2018-11-13T04:16:38.324Z,82.61
2018-11-13T04:19:06.428Z,82.66
2018-11-13T04:21:34.546Z,82.73
2018-11-13T04:24:01.969Z,83.04
2018-11-13T04:26:29.580Z,82.89
2018-11-13T04:28:57.334Z,82.85
2018-11-13T04:31:24.804Z,83.12
2018-11-13T04:33:52.532Z,83.04
2018-11-13T04:36:20.173Z,82.83
2018-11-13T04:38:47.706Z,82.98
2018-11-13T04:41:15.392Z,82.41
2018-11-13T04:43:43.122Z,82.57
2018-11-13T04:46:10.580Z,82.46
2018-11-13T04:48:38.132Z,82.94
2018-11-13T04:51:05.883Z,82.73
2018-11-13T04:53:33.374Z,82.53
2018-11-13T04:56:00.934Z,82.63
2018-11-13T04:58:28.639Z,82.49
2018-11-13T05:00:56.168Z,82.48
2018-11-13T05:03:23.901Z,82.65
2018-11-13T05:05:51.505Z,82.80
2018-11-13T05:08:18.960Z,82.73
2018-11-13T05:10:46.639Z,83.00
2018-11-13T05:13:14.233Z,82.83
2018-11-13T05:15:41.698Z,82.93
2018-11-13T05:18:09.432Z,82.72
2018-11-13T05:20:37.161Z,82.86
2018-11-13T05:23:04.878Z,82.65
2018-11-13T05:25:32.632Z,82.51
2018-11-13T05:28:00.341Z,82.15
2018-11-13T05:30:27.837Z,82.23
2018-11-13T05:32:55.457Z,82.44
2018-11-13T05:35:23.600Z,82.47
2018-11-13T05:37:51.126Z,82.34
2018-11-13T05:40:23.632Z,82.07
2018-11-13T05:42:51.496Z,82.41
2018-11-13T05:45:20.691Z,82.53
2018-11-13T05:47:48.375Z,82.27
2018-11-13T05:50:16.757Z,82.35
2018-11-13T05:52:44.974Z,82.70
2018-11-13T05:55:13.020Z,82.33
2018-11-13T05:57:40.695Z,82.72
2018-11-13T06:00:13.399Z,82.36
2018-11-13T06:02:40.959Z,82.42
2018-11-13T06:05:09.059Z,82.42
2018-11-13T06:07:36.516Z,82.11
2018-11-13T06:10:04.444Z,82.27
2018-11-13T06:12:31.951Z,82.54
2018-11-13T06:14:59.383Z,82.37
2018-11-13T06:17:26.879Z,82.51
2018-11-13T06:19:54.551Z,82.45
2018-11-13T06:22:21.966Z,82.58
2018-11-13T06:24:49.505Z,82.46
2018-11-13T06:27:17.277Z,82.57
2018-11-13T06:29:44.907Z,82.30
2018-11-13T06:32:12.525Z,82.54
2018-11-13T06:34:40.517Z,82.81
2018-11-13T06:37:08.018Z,82.47
2018-11-13T06:39:35.688Z,82.35
2018-11-13T06:42:03.950Z,82.31
2018-11-13T06:44:31.468Z,82.35
2018-11-13T06:46:59.158Z,82.38
2018-11-13T06:49:26.696Z,82.09
2018-11-13T06:51:54.265Z,82.82
2018-11-13T06:54:32.995Z,82.54
2018-11-13T06:57:00.488Z,82.40
2018-11-13T06:59:31.046Z,82.55
2018-11-13T07:01:58.927Z,82.45
2018-11-13T07:04:26.370Z,82.50
2018-11-13T07:06:53.975Z,82.57
2018-11-13T07:09:21.786Z,82.12
2018-11-13T07:11:49.246Z,82.20
2018-11-13T07:14:16.714Z,82.23
2018-11-13T07:16:44.370Z,82.00
2018-11-13T07:19:11.854Z,81.71
2018-11-13T07:21:39.279Z,82.29
2018-11-13T07:24:06.934Z,82.31
2018-11-13T07:26:34.475Z,82.20
2018-11-13T07:29:02.322Z,81.99
2018-11-13T07:31:29.961Z,82.08
2018-11-13T07:33:57.422Z,81.99
2018-11-13T07:36:24.858Z,82.15
2018-11-13T07:38:52.498Z,81.95
2018-11-13T07:41:20.089Z,81.93
2018-11-13T07:43:47.601Z,81.89
2018-11-13T07:46:15.752Z,82.21
2018-11-13T07:48:43.308Z,81.80
2018-11-13T07:51:10.808Z,81.82
2018-11-13T07:53:38.536Z,81.90
2018-11-13T07:56:06.079Z,81.65
2018-11-13T07:58:33.560Z,81.55
2018-11-13T08:01:01.445Z,81.84
2018-11-13T08:03:31.419Z,81.43
2018-11-13T08:05:59.341Z,81.64
2018-11-13T08:08:27.227Z,81.71
2018-11-13T08:10:54.690Z,81.41
2018-11-13T08:13:22.339Z,81.44
2018-11-13T08:15:49.921Z,81.81
2018-11-13T08:18:17.449Z,81.64
2018-11-13T08:20:44.958Z,81.56
2018-11-13T08:23:12.674Z,81.32
2018-11-13T08:25:40.175Z,81.41
2018-11-13T08:28:07.674Z,81.60
2018-11-13T08:30:35.845Z,81.14
2018-11-13T08:33:03.473Z,81.27
2018-11-13T08:35:31.004Z,81.35
2018-11-13T08:37:58.704Z,81.55
2018-11-13T08:40:26.222Z,81.06
2018-11-13T08:42:53.759Z,81.22
2018-11-13T08:45:21.618Z,81.54
2018-11-13T08:47:49.055Z,81.21
2018-11-13T08:50:16.721Z,81.07
2018-11-13T08:52:45.035Z,80.96
2018-11-13T08:55:12.866Z,81.09
2018-11-13T08:57:40.375Z,80.62
2018-11-13T09:00:09.959Z,81.02
2018-11-13T09:02:37.728Z,81.19
2018-11-13T09:05:05.741Z,80.80
2018-11-13T09:07:33.325Z,80.72
2018-11-13T09:10:00.920Z,80.98
2018-11-13T09:12:28.450Z,80.87
2018-11-13T09:14:56.172Z,80.73
2018-11-13T09:17:23.691Z,80.45
2018-11-13T09:19:51.201Z,80.80
2018-11-13T09:22:18.956Z,80.93
2018-11-13T09:24:46.448Z,80.73
2018-11-13T09:27:13.999Z,80.79
2018-11-13T09:29:42.071Z,80.34
2018-11-13T09:32:09.468Z,80.23
2018-11-13T09:34:36.935Z,80.25
2018-11-13T09:37:05.212Z,80.41
2018-11-13T09:39:32.694Z,80.19
2018-11-13T09:42:00.253Z,79.89
2018-11-13T09:44:28.213Z,79.91
2018-11-13T09:46:55.694Z,79.70
2018-11-13T09:49:23.169Z,79.81
2018-11-13T09:51:50.910Z,79.80
2018-11-13T09:54:18.440Z,79.79
2018-11-13T09:56:46.061Z,79.53
2018-11-13T09:59:13.956Z,79.51
2018-11-13T10:01:41.712Z,79.21
2018-11-13T10:04:09.564Z,79.10
2018-11-13T10:06:36.864Z,79.26
2018-11-13T10:09:10.132Z,79.46
2018-11-13T10:11:38.057Z,79.05
2018-11-13T10:14:05.567Z,78.93
2018-11-13T10:16:33.178Z,79.13
2018-11-13T10:19:01.052Z,78.97
2018-11-13T10:21:28.671Z,78.81
2018-11-13T10:23:56.167Z,78.97
2018-11-13T10:26:23.980Z,78.89
2018-11-13T10:28:51.375Z,78.75
2018-11-13T10:31:18.781Z,78.64
2018-11-13T10:33:46.573Z,78.83
2018-11-13T10:36:14.014Z,78.37
2018-11-13T10:42:11.968Z,78.43
2018-11-13T10:44:39.470Z,78.45
2018-11-13T10:47:07.194Z,78.32
2018-11-13T10:49:34.829Z,78.18
2018-11-13T10:52:02.341Z,78.26
2018-11-13T10:54:29.956Z,78.55
2018-11-13T10:56:57.662Z,78.04
2018-11-13T10:59:25.161Z,78.06
2018-11-13T11:01:58.862Z,77.80
2018-11-13T11:04:32.147Z,77.83
2018-11-13T11:07:00.358Z,78.02
2018-11-13T11:09:27.832Z,78.35
2018-11-13T11:11:55.297Z,78.34
2018-11-13T11:14:22.980Z,77.83
2018-11-13T11:16:50.458Z,78.01
2018-11-13T11:19:17.983Z,77.98
2018-11-13T11:21:45.752Z,77.62
2018-11-13T11:24:13.299Z,77.78
2018-11-13T11:26:40.733Z,78.14
2018-11-13T11:29:08.618Z,77.73
2018-11-13T11:31:36.003Z,77.90
2018-11-13T11:34:03.501Z,77.83
2018-11-13T11:36:31.233Z,78.04
2018-11-13T11:38:58.869Z,77.96
2018-11-13T11:41:26.234Z,77.54
2018-11-13T11:43:54.053Z,77.32
2018-11-13T11:46:21.534Z,77.65
2018-11-13T11:48:49.033Z,77.60
2018-11-13T11:51:16.831Z,77.25
2018-11-13T11:53:44.240Z,77.75
2018-11-13T11:56:11.786Z,77.50
2018-11-13T11:58:39.532Z,77.21
2018-11-13T12:01:07.050Z,77.48
2018-11-13T12:03:34.499Z,77.28
2018-11-13T12:06:02.085Z,77.68
2018-11-13T12:08:29.558Z,77.32
2018-11-13T12:10:57.079Z,77.35
2018-11-13T12:13:25.024Z,77.14
2018-11-13T12:15:52.452Z,77.15
2018-11-13T12:18:19.858Z,77.09
2018-11-13T12:20:47.404Z,76.85
2018-11-13T12:23:14.912Z,77.26
2018-11-13T12:25:42.461Z,77.32
2018-11-13T12:28:10.487Z,77.32
2018-11-13T12:30:37.957Z,76.95
2018-11-13T12:33:05.696Z,77.26
2018-11-13T12:35:33.400Z,76.97
2018-11-13T12:38:00.966Z,77.08
2018-11-13T12:40:28.439Z,77.20
2018-11-13T12:42:56.412Z,76.59
2018-11-13T12:45:23.913Z,76.65
2018-11-13T12:47:51.310Z,77.05
2018-11-13T12:50:20.047Z,77.10
2018-11-13T12:52:47.543Z,76.79
2018-11-13T12:55:16.757Z,76.70
2018-11-13T12:57:44.712Z,77.09
2018-11-13T13:00:14.880Z,76.79
2018-11-13T13:02:42.270Z,76.70
2018-11-13T13:05:10.383Z,76.76
2018-11-13T13:07:37.994Z,76.83
2018-11-13T13:10:08.844Z,76.59
2018-11-13T13:12:36.547Z,77.05
2018-11-13T13:15:04.902Z,76.79
2018-11-13T13:17:32.303Z,76.76
2018-11-13T13:20:00.170Z,76.55
2018-11-13T13:22:27.823Z,76.51
2018-11-13T13:24:55.184Z,76.59
2018-11-13T13:27:22.893Z,76.93
2018-11-13T13:29:50.391Z,76.63
2018-11-13T13:32:17.810Z,76.79
2018-11-13T13:34:45.487Z,77.00
2018-11-13T13:37:12.935Z,76.87
2018-11-13T13:39:40.405Z,76.77
2018-11-13T13:42:08.435Z,77.22
2018-11-13T13:44:35.846Z,76.99
2018-11-13T13:47:03.383Z,77.03
2018-11-13T13:49:31.635Z,77.04
2018-11-13T13:51:59.112Z,77.31
2018-11-13T13:54:26.629Z,77.06
2018-11-13T13:56:54.273Z,76.91
2018-11-13T13:59:21.883Z,76.71
2018-11-13T14:01:49.385Z,77.09
2018-11-13T14:04:17.089Z,77.13
2018-11-13T14:06:44.539Z,76.78
2018-11-13T14:09:12.283Z,77.38
2018-11-13T14:11:40.600Z,76.88
2018-11-13T14:14:08.137Z,77.03
2018-11-13T14:16:35.590Z,77.43
2018-11-13T14:19:03.551Z,77.60
2018-11-13T14:21:31.005Z,77.82
2018-11-13T14:23:58.515Z,77.35
2018-11-13T14:26:26.588Z,77.43
2018-11-13T14:28:54.092Z,77.37
2018-11-13T14:31:21.575Z,77.43
2018-11-13T14:33:49.337Z,77.22
2018-11-13T14:36:16.818Z,77.22
2018-11-13T14:38:44.454Z,77.30
2018-11-13T14:41:12.321Z,77.14
2018-11-13T14:43:39.818Z,77.29
2018-11-13T14:46:07.276Z,77.56
2018-11-13T14:48:34.970Z,77.78
2018-11-13T14:51:02.465Z,77.72
2018-11-13T14:53:29.976Z,77.48
2018-11-13T14:55:58.066Z,77.99
2018-11-13T14:58:25.551Z,77.88
2018-11-13T15:00:53.026Z,78.08
2018-11-13T15:03:20.818Z,77.88
2018-11-13T15:05:48.310Z,78.26
2018-11-13T15:08:15.758Z,77.92
2018-11-13T15:10:54.754Z,78.25
2018-11-13T15:13:24.670Z,77.89
2018-11-13T15:15:52.287Z,77.99
2018-11-13T15:18:20.059Z,78.01
2018-11-13T15:20:48.256Z,78.33
2018-11-13T15:23:15.942Z,78.22
2018-11-13T15:25:43.675Z,78.50
2018-11-13T15:28:11.459Z,78.05
2018-11-13T15:30:44.359Z,78.55
2018-11-13T15:33:13.710Z,78.55
2018-11-13T15:35:41.158Z,78.48
2018-11-13T15:38:08.736Z,78.06
2018-11-13T15:40:36.477Z,78.34
2018-11-13T15:43:04.251Z,78.22
2018-11-13T15:45:31.879Z,78.54
2018-11-13T15:48:00.666Z,78.51
2018-11-13T15:50:42.838Z,78.36
2018-11-13T15:53:10.794Z,78.48
2018-11-13T15:55:38.258Z,78.21
2018-11-13T15:58:06.338Z,78.08
2018-11-13T16:00:35.301Z,77.83
2018-11-13T16:03:06.509Z,78.00
2018-11-13T16:05:37.122Z,78.01
2018-11-13T16:08:05.764Z,77.73
2018-11-13T16:10:33.228Z,77.88
2018-11-13T16:13:01.305Z,77.92
2018-11-13T16:15:29.178Z,77.66
2018-11-13T16:17:57.909Z,77.94
2018-11-13T16:20:25.799Z,77.64
2018-11-13T16:22:53.316Z,78.00
2018-11-13T16:25:20.776Z,77.39
2018-11-13T16:27:48.882Z,77.72
2018-11-13T16:30:20.580Z,77.58
2018-11-13T16:32:48.593Z,77.79
2018-11-13T16:35:17.182Z,77.49
2018-11-13T16:37:45.422Z,77.41
2018-11-13T16:40:15.597Z,77.30
2018-11-13T16:42:43.379Z,77.47
2018-11-13T16:45:12.599Z,77.68
2018-11-13T16:47:40.138Z,77.77
2018-11-13T16:50:11.411Z,77.59
2018-11-13T16:52:38.938Z,77.58
2018-11-13T16:55:07.186Z,77.64
2018-11-13T16:57:34.891Z,78.18
2018-11-13T17:00:02.474Z,77.93
2018-11-13T17:02:30.061Z,77.53
2018-11-13T17:04:57.896Z,77.45
2018-11-13T17:07:25.493Z,77.91
2018-11-13T17:09:52.887Z,77.85
2018-11-13T17:12:21.259Z,77.18
2018-11-13T17:14:48.694Z,77.37
2018-11-13T17:17:16.342Z,77.65
2018-11-13T17:19:44.109Z,77.26
2018-11-13T17:22:11.691Z,77.40
2018-11-13T17:24:39.130Z,77.31
2018-11-13T17:27:07.020Z,77.20
2018-11-13T17:29:34.654Z,77.08
2018-11-13T17:32:02.172Z,77.29
2018-11-13T17:34:29.967Z,77.20
2018-11-13T17:36:57.486Z,77.26
2018-11-13T17:39:24.973Z,76.84
2018-11-13T17:41:52.741Z,77.13
2018-11-13T17:44:20.330Z,77.20
2018-11-13T17:46:47.795Z,77.11
2018-11-13T17:49:15.606Z,77.31
2018-11-13T17:51:43.143Z,77.02
2018-11-13T17:54:10.628Z,77.12
2018-11-13T17:56:38.603Z,77.18
2018-11-13T17:59:06.213Z,77.13
2018-11-13T18:01:33.706Z,77.17
2018-11-13T18:04:01.456Z,77.14
2018-11-13T18:06:28.981Z,77.15
2018-11-13T18:08:56.437Z,77.10
2018-11-13T18:11:24.155Z,76.99
2018-11-13T18:13:51.695Z,77.12
2018-11-13T18:16:19.205Z,77.10
2018-11-13T18:18:47.203Z,76.91
2018-11-13T18:21:14.665Z,77.03
2018-11-13T18:23:42.273Z,76.76
2018-11-13T18:26:10.295Z,76.90
2018-11-13T18:28:37.805Z,76.81
2018-11-13T18:31:05.429Z,77.01
2018-11-13T18:33:33.326Z,77.06
2018-11-13T18:36:00.818Z,76.98
2018-11-13T18:38:28.377Z,76.78
2018-11-13T18:41:02.822Z,76.87
2018-11-13T18:43:30.292Z,76.72
2018-11-13T18:45:57.759Z,76.64
2018-11-13T18:48:25.540Z,76.44
2018-11-13T18:50:53.042Z,76.89
2018-11-13T18:53:20.665Z,76.90
2018-11-13T18:55:48.929Z,76.93
2018-11-13T18:58:16.414Z,76.82
2018-11-13T19:00:43.895Z,76.71
2018-11-13T19:03:12.332Z,76.72
2018-11-13T19:05:39.939Z,76.52
2018-11-13T19:08:07.770Z,76.53
2018-11-13T19:10:45.630Z,76.86
2018-11-13T19:13:15.386Z,76.77
2018-11-13T19:15:44.441Z,76.77
2018-11-13T19:18:12.467Z,76.69
2018-11-13T19:20:39.968Z,76.86
2018-11-13T19:23:07.568Z,76.96
2018-11-13T19:25:35.814Z,76.70
2018-11-13T19:28:03.598Z,77.10
2018-11-13T19:30:31.039Z,77.04
2018-11-13T19:32:58.766Z,76.89
2018-11-13T19:35:26.661Z,76.82
2018-11-13T19:37:54.347Z,77.36
2018-11-13T19:40:24.124Z,77.22
2018-11-13T19:42:52.472Z,77.08
2018-11-13T19:45:20.248Z,77.39
2018-11-13T19:47:47.894Z,77.01
2018-11-13T19:50:18.105Z,77.03
2018-11-13T19:52:45.551Z,77.03
2018-11-13T19:55:14.355Z,77.04
2018-11-13T19:57:42.667Z,77.26
2018-11-13T20:00:12.179Z,77.02
2018-11-13T20:02:40.039Z,77.09
2018-11-13T20:05:09.033Z,77.00
2018-11-13T20:07:36.759Z,76.77
2018-11-13T20:10:09.266Z,77.13
2018-11-13T20:12:36.812Z,76.90
2018-11-13T20:15:04.753Z,76.70
2018-11-13T20:17:32.436Z,76.72
2018-11-13T20:19:59.963Z,76.77
2018-11-13T20:22:27.681Z,76.81
2018-11-13T20:24:55.391Z,76.93
2018-11-13T20:27:23.011Z,77.47
2018-11-13T20:29:50.760Z,76.97
2018-11-13T20:32:18.315Z,76.88
2018-11-13T20:34:45.842Z,76.99
2018-11-13T20:37:13.447Z,77.05
2018-11-13T20:39:41.048Z,76.93
2018-11-13T20:42:08.596Z,76.81
2018-11-13T20:44:36.367Z,76.87
2018-11-13T20:47:04.133Z,76.82
2018-11-13T20:49:31.703Z,76.72
2018-11-13T20:51:59.379Z,77.13
2018-11-13T20:54:27.049Z,77.12
2018-11-13T20:56:54.615Z,77.05
2018-11-13T20:59:22.166Z,76.99
2018-11-13T21:01:49.934Z,77.15
2018-11-13T21:04:17.422Z,76.88
2018-11-13T21:06:45.044Z,77.04
2018-11-13T21:09:12.722Z,77.06
2018-11-13T21:11:41.033Z,76.91
2018-11-13T21:14:08.674Z,77.15
2018-11-13T21:16:36.553Z,77.00
2018-11-13T21:19:04.215Z,76.82
2018-11-13T21:21:31.868Z,76.58
2018-11-13T21:23:59.654Z,77.23
2018-11-13T21:26:27.100Z,77.11
2018-11-13T21:28:54.680Z,77.10
2018-11-13T21:31:22.245Z,77.08
2018-11-13T21:33:49.710Z,77.00
2018-11-13T21:36:17.309Z,77.00
2018-11-13T21:38:44.927Z,77.00
2018-11-13T21:41:43.341Z,77.12
2018-11-13T21:44:10.914Z,76.86
2018-11-13T21:46:38.522Z,76.91
2018-11-13T21:49:06.192Z,77.10
2018-11-13T21:51:35.029Z,76.98
2018-11-13T21:57:00.889Z,76.97
2018-11-13T21:59:28.433Z,76.96
2018-11-13T22:01:56.288Z,77.13
2018-11-13T22:04:24.060Z,76.88
2018-11-13T22:06:51.597Z,76.95
2018-11-13T22:09:19.115Z,77.22
2018-11-13T22:11:46.916Z,77.27
2018-11-13T22:14:14.421Z,77.29
2018-11-13T22:16:42.561Z,77.12
2018-11-13T22:19:09.885Z,77.33
2018-11-13T22:21:37.355Z,77.56
2018-11-13T22:24:05.250Z,77.23
2018-11-13T22:26:33.038Z,77.48
2018-11-13T22:29:00.565Z,77.65
2018-11-13T22:31:27.983Z,77.33
2018-11-13T22:33:55.907Z,77.58
2018-11-13T22:36:23.406Z,77.64
2018-11-13T22:38:50.912Z,77.88
2018-11-13T22:41:18.915Z,77.69
2018-11-13T22:43:46.434Z,77.52
2018-11-13T22:46:13.965Z,77.60
2018-11-13T22:48:41.744Z,77.58
2018-11-13T22:51:09.588Z,77.80
2018-11-13T22:53:36.759Z,77.68
2018-11-13T22:56:04.785Z,77.72
2018-11-13T22:58:32.252Z,77.88
2018-11-13T23:00:59.722Z,77.78
2018-11-13T23:03:27.518Z,77.73
2018-11-13T23:05:55.099Z,77.83
2018-11-13T23:08:22.635Z,77.77
2018-11-13T23:10:50.606Z,77.61
2018-11-13T23:13:18.071Z,77.79
2018-11-13T23:15:45.547Z,77.79
2018-11-13T23:18:13.264Z,77.75
2018-11-13T23:20:40.734Z,77.85
2018-11-13T23:23:08.317Z,77.98
2018-11-13T23:25:35.995Z,77.78
2018-11-13T23:28:03.751Z,77.83
2018-11-13T23:30:31.146Z,77.83
2018-11-13T23:32:59.444Z,77.77
2018-11-13T23:35:26.932Z,78.06
2018-11-13T23:37:55.622Z,77.99
2018-11-13T23:40:24.554Z,77.96
2018-11-13T23:42:52.391Z,77.99
2018-11-13T23:45:20.969Z,77.88
2018-11-13T23:47:49.196Z,78.18
2018-11-13T23:50:16.800Z,78.09
2018-11-13T23:52:44.944Z,78.21
2018-11-13T23:55:13.547Z,78.13
2018-11-13T23:57:41.616Z,78.10
